createdAt,value
2024-02-19T00:00:16.256Z,8.30
2024-02-19T00:02:42.639Z,7.30
2024-02-19T00:05:10.420Z,10.03
2024-02-19T00:07:37.379Z,9.20
2024-02-19T00:10:04.117Z,11.70
2024-02-19T00:12:30.508Z,8.50
2024-02-19T00:14:56.859Z,9.07
2024-02-19T00:17:23.340Z,8.40
2024-02-19T00:19:50.666Z,7.83
2024-02-19T00:22:17.118Z,9.33
2024-02-19T00:24:43.603Z,9.07
2024-02-19T00:27:10.033Z,9.30
2024-02-19T00:29:38.992Z,12.03
2024-02-19T00:32:05.539Z,8.83
2024-02-19T00:34:33.179Z,8.83
2024-02-19T00:36:59.680Z,9.17
2024-02-19T00:39:26.060Z,9.90
2024-02-19T00:41:52.512Z,8.30
2024-02-19T00:44:18.916Z,10.03
2024-02-19T00:46:45.208Z,7.73
2024-02-19T00:49:14.194Z,7.43
2024-02-19T00:51:41.321Z,9.27
2024-02-19T00:54:07.772Z,8.47
2024-02-19T00:56:35.685Z,9.93
2024-02-19T00:59:04.506Z,8.43
2024-02-19T01:01:31.639Z,8.50
2024-02-19T01:03:59.186Z,7.60
2024-02-19T01:06:26.126Z,7.30
2024-02-19T01:08:52.599Z,6.63
2024-02-19T01:11:19.278Z,8.10
2024-02-19T01:13:45.754Z,9.07
2024-02-19T01:16:12.357Z,6.70
2024-02-19T01:18:45.910Z,7.00
2024-02-19T01:21:12.918Z,7.17
2024-02-19T01:23:39.922Z,6.13
2024-02-19T01:26:06.316Z,6.93
2024-02-19T01:28:32.675Z,8.17
2024-02-19T01:30:59.147Z,9.10
2024-02-19T01:33:27.268Z,7.60
2024-02-19T01:35:54.704Z,8.10
2024-02-19T01:38:23.277Z,9.43
2024-02-19T01:40:49.895Z,5.97
2024-02-19T01:43:17.278Z,5.60
2024-02-19T01:45:43.799Z,7.23
2024-02-19T01:48:11.238Z,9.00
2024-02-19T01:50:39.398Z,5.43
2024-02-19T01:53:08.735Z,5.27
2024-02-19T01:55:36.131Z,6.40
2024-02-19T01:58:04.015Z,4.33
2024-02-19T02:00:36.928Z,7.73
2024-02-19T02:03:03.943Z,5.40
2024-02-19T02:05:30.520Z,5.17
2024-02-19T02:08:02.746Z,5.03
2024-02-19T02:10:29.457Z,5.50
2024-02-19T02:12:56.691Z,5.30
2024-02-19T02:15:23.179Z,5.33
2024-02-19T02:17:50.143Z,5.53
2024-02-19T02:20:16.685Z,4.37
2024-02-19T02:22:44.683Z,6.73
2024-02-19T02:25:11.465Z,4.43
2024-02-19T02:27:39.514Z,5.10
2024-02-19T02:30:06.940Z,5.27
2024-02-19T02:32:35.134Z,5.40
2024-02-19T02:35:02.153Z,6.60
2024-02-19T02:37:29.239Z,6.27
2024-02-19T02:39:55.386Z,8.93
2024-02-19T02:42:21.732Z,5.47
2024-02-19T02:44:48.095Z,4.50
2024-02-19T02:47:14.510Z,5.17
2024-02-19T02:49:40.884Z,4.37
2024-02-19T02:52:07.577Z,3.43
2024-02-19T02:54:34.429Z,5.40
2024-02-19T02:57:01.371Z,4.60
2024-02-19T02:59:28.117Z,3.60
2024-02-19T03:01:54.356Z,4.90
2024-02-19T03:04:20.747Z,5.23
2024-02-19T03:06:47.424Z,3.93
2024-02-19T03:09:14.322Z,5.57
2024-02-19T03:11:40.904Z,5.07
2024-02-19T03:14:08.072Z,7.57
2024-02-19T03:16:35.567Z,3.73
2024-02-19T03:19:02.274Z,3.77
2024-02-19T03:21:29.405Z,3.70
2024-02-19T03:23:56.087Z,3.60
2024-02-19T03:26:34.907Z,3.90
2024-02-19T03:29:16.237Z,3.83
2024-02-19T03:31:43.301Z,5.77
2024-02-19T03:34:10.502Z,2.60
2024-02-19T03:36:37.467Z,3.20
2024-02-19T03:39:05.654Z,3.33
2024-02-19T03:41:32.184Z,6.63
2024-02-19T03:43:58.634Z,4.27
2024-02-19T03:46:24.965Z,2.83
2024-02-19T03:48:51.457Z,2.67
2024-02-19T03:51:17.937Z,4.50
2024-02-19T03:53:45.920Z,3.17
2024-02-19T03:56:12.311Z,2.47
2024-02-19T03:58:41.165Z,2.73
2024-02-19T04:01:08.672Z,4.73
2024-02-19T04:03:35.997Z,4.50
2024-02-19T04:06:02.966Z,2.20
2024-02-19T04:08:30.110Z,1.93
2024-02-19T04:10:56.800Z,1.93
2024-02-19T04:13:23.241Z,3.33
2024-02-19T04:15:50.089Z,2.03
2024-02-19T04:18:16.629Z,1.67
2024-02-19T04:20:43.165Z,1.70
2024-02-19T04:23:09.475Z,1.97
2024-02-19T04:25:35.949Z,1.77
2024-02-19T04:28:02.376Z,1.67
2024-02-19T04:30:29.226Z,2.00
2024-02-19T04:32:55.859Z,1.83
2024-02-19T04:35:22.319Z,1.50
2024-02-19T04:37:49.029Z,1.20
2024-02-19T04:40:15.844Z,3.33
2024-02-19T04:42:42.365Z,1.40
2024-02-19T04:45:09.048Z,1.70
2024-02-19T04:47:35.445Z,1.47
2024-02-19T04:50:04.911Z,2.07
2024-02-19T04:52:31.494Z,1.23
2024-02-19T04:54:57.992Z,1.40
2024-02-19T04:57:24.691Z,2.60
2024-02-19T04:59:51.164Z,1.63
2024-02-19T05:02:18.114Z,1.90
2024-02-19T05:04:44.722Z,1.50
2024-02-19T05:07:11.117Z,1.73
2024-02-19T05:09:39.378Z,1.57
2024-02-19T05:12:05.597Z,1.83
2024-02-19T05:14:32.038Z,1.73
2024-02-19T05:16:58.886Z,1.70
2024-02-19T05:19:25.576Z,1.93
2024-02-19T05:21:51.964Z,2.20
2024-02-19T05:24:19.228Z,2.40
2024-02-19T05:26:45.863Z,1.60
2024-02-19T05:29:12.348Z,1.90
2024-02-19T05:31:38.915Z,3.37
2024-02-19T05:34:05.825Z,2.97
2024-02-19T05:36:32.774Z,3.40
2024-02-19T05:38:59.302Z,2.87
2024-02-19T05:41:26.247Z,2.97
2024-02-19T05:43:52.873Z,2.67
2024-02-19T05:46:19.801Z,2.30
2024-02-19T05:48:46.290Z,3.20
2024-02-19T05:51:12.937Z,2.47
2024-02-19T05:53:42.341Z,1.87
2024-02-19T05:56:11.734Z,1.90
2024-02-19T05:58:44.274Z,1.77
2024-02-19T06:01:10.873Z,2.23
2024-02-19T06:03:37.762Z,2.30
2024-02-19T06:06:05.274Z,1.40
2024-02-19T06:08:31.991Z,1.77
2024-02-19T06:10:58.974Z,1.40
2024-02-19T06:13:26.567Z,1.53
2024-02-19T06:15:53.472Z,2.93
2024-02-19T06:18:20.804Z,0.90
2024-02-19T06:20:48.792Z,1.43
2024-02-19T06:23:16.148Z,1.03
2024-02-19T06:25:45.668Z,1.50
2024-02-19T06:28:12.559Z,1.53
2024-02-19T06:30:40.729Z,1.20
2024-02-19T06:33:07.583Z,1.17
2024-02-19T06:35:34.245Z,2.13
2024-02-19T06:38:01.988Z,2.40
2024-02-19T06:40:28.718Z,1.53
2024-02-19T06:42:55.698Z,1.60
2024-02-19T06:45:22.629Z,1.87
2024-02-19T06:47:49.246Z,1.80
2024-02-19T06:50:15.930Z,4.30
2024-02-19T06:52:46.951Z,1.60
2024-02-19T06:55:17.005Z,2.40
2024-02-19T06:57:43.702Z,1.57
2024-02-19T07:00:10.816Z,1.30
2024-02-19T07:02:37.569Z,2.67
2024-02-19T07:05:06.748Z,1.10
2024-02-19T07:07:34.388Z,1.50
2024-02-19T07:10:00.948Z,1.00
2024-02-19T07:12:28.340Z,1.67
2024-02-19T07:14:56.575Z,1.53
2024-02-19T07:17:23.581Z,1.43
2024-02-19T07:19:50.699Z,2.00
2024-02-19T07:22:17.290Z,1.37
2024-02-19T07:24:43.778Z,2.63
2024-02-19T07:27:10.416Z,1.47
2024-02-19T07:29:37.338Z,1.30
2024-02-19T07:32:04.140Z,1.73
2024-02-19T07:34:30.666Z,2.40
2024-02-19T07:36:57.125Z,1.63
2024-02-19T07:39:23.502Z,1.60
2024-02-19T07:41:52.154Z,1.40
2024-02-19T07:44:19.223Z,1.23
2024-02-19T07:46:45.668Z,1.40
2024-02-19T07:49:12.568Z,1.23
2024-02-19T07:51:39.513Z,1.20
2024-02-19T07:54:06.165Z,1.10
2024-02-19T07:56:33.228Z,1.20
2024-02-19T07:58:59.541Z,1.23
2024-02-19T08:01:26.903Z,1.43
2024-02-19T08:03:55.450Z,1.10
2024-02-19T08:06:23.126Z,1.03
2024-02-19T08:08:53.600Z,3.83
2024-02-19T08:11:23.178Z,4.20
2024-02-19T08:13:54.174Z,1.30
2024-02-19T08:16:22.329Z,1.00
2024-02-19T08:18:51.349Z,1.67
2024-02-19T08:21:19.632Z,2.00
2024-02-19T08:24:12.799Z,1.73
2024-02-19T08:26:40.697Z,1.37
2024-02-19T08:29:07.511Z,2.40
2024-02-19T08:31:34.315Z,1.10
2024-02-19T08:34:01.018Z,1.20
2024-02-19T08:36:27.868Z,2.70
2024-02-19T08:38:54.556Z,1.27
2024-02-19T08:41:21.332Z,3.00
2024-02-19T08:43:47.716Z,1.30
2024-02-19T08:46:14.757Z,1.83
2024-02-19T08:48:41.566Z,1.43
2024-02-19T08:51:09.089Z,1.33
2024-02-19T08:53:36.054Z,1.30
2024-02-19T08:56:02.604Z,4.13
2024-02-19T08:58:32.417Z,1.43
2024-02-19T09:01:03.037Z,1.20
2024-02-19T09:03:32.307Z,2.30
2024-02-19T09:06:01.804Z,2.03
2024-02-19T09:08:29.966Z,1.23
2024-02-19T09:10:58.760Z,1.63
2024-02-19T09:13:25.648Z,5.03
2024-02-19T09:15:53.159Z,2.10
2024-02-19T09:18:19.659Z,1.03
2024-02-19T09:20:46.038Z,4.50
2024-02-19T09:23:13.186Z,1.17
2024-02-19T09:25:39.560Z,6.83
2024-02-19T09:28:08.365Z,1.23
2024-02-19T09:30:34.658Z,1.73
2024-02-19T09:33:00.900Z,1.20
2024-02-19T09:35:27.870Z,1.50
2024-02-19T09:37:54.474Z,1.30
2024-02-19T09:40:25.007Z,1.30
2024-02-19T09:42:52.420Z,1.80
2024-02-19T09:45:20.736Z,1.30
2024-02-19T09:47:49.695Z,3.43
2024-02-19T09:50:18.469Z,1.77
2024-02-19T09:52:48.127Z,3.00
2024-02-19T09:55:15.033Z,1.60
2024-02-19T09:57:41.398Z,2.00
2024-02-19T10:00:10.758Z,3.73
2024-02-19T10:02:39.561Z,1.43
2024-02-19T10:05:09.225Z,1.20
2024-02-19T10:07:37.014Z,1.47
2024-02-19T10:10:05.642Z,0.97
2024-02-19T10:12:32.016Z,1.40
2024-02-19T10:14:58.492Z,2.87
2024-02-19T10:17:25.248Z,4.60
2024-02-19T10:20:01.918Z,1.70
2024-02-19T10:22:29.049Z,1.80
2024-02-19T10:24:56.499Z,0.80
2024-02-19T10:27:23.316Z,1.50
2024-02-19T10:29:50.234Z,0.90
2024-02-19T10:32:17.705Z,4.53
2024-02-19T10:34:44.904Z,1.40
2024-02-19T10:37:11.770Z,1.30
2024-02-19T10:39:38.799Z,1.00
2024-02-19T10:42:05.645Z,1.67
2024-02-19T10:44:34.398Z,0.70
2024-02-19T10:47:02.921Z,1.73
2024-02-19T10:49:31.861Z,0.70
2024-02-19T10:51:59.433Z,2.70
2024-02-19T10:54:27.652Z,0.77
2024-02-19T10:56:54.080Z,0.70
2024-02-19T10:59:22.076Z,0.70
2024-02-19T11:01:58.858Z,0.80
2024-02-19T11:04:25.871Z,1.50
2024-02-19T11:06:57.268Z,0.83
2024-02-19T11:09:37.338Z,1.07
2024-02-19T11:12:06.543Z,1.13
2024-02-19T11:14:35.839Z,6.03
2024-02-19T11:17:03.049Z,2.20
2024-02-19T11:19:30.656Z,1.57
2024-02-19T11:22:09.782Z,1.60
2024-02-19T11:24:36.900Z,1.87
2024-02-19T11:27:04.990Z,1.83
2024-02-19T11:29:40.333Z,1.77
2024-02-19T11:32:18.410Z,1.93
2024-02-19T11:34:44.936Z,1.87
2024-02-19T11:37:13.409Z,3.00
2024-02-19T11:39:41.165Z,1.90
2024-02-19T11:42:11.754Z,2.27
2024-02-19T11:44:38.712Z,1.83
2024-02-19T11:47:05.500Z,1.93
2024-02-19T11:49:34.194Z,2.00
2024-02-19T11:52:10.932Z,1.80
2024-02-19T11:54:39.775Z,2.13
2024-02-19T11:57:09.026Z,1.50
2024-02-19T11:59:41.611Z,1.50
2024-02-19T12:02:11.111Z,1.53
2024-02-19T12:04:38.609Z,1.40
2024-02-19T12:07:06.079Z,1.60
2024-02-19T12:09:33.078Z,1.73
2024-02-19T12:11:59.796Z,2.03
2024-02-19T12:14:27.237Z,1.23
2024-02-19T12:16:55.856Z,0.90
2024-02-19T12:19:22.636Z,2.70
2024-02-19T12:21:51.111Z,2.23
2024-02-19T12:24:18.686Z,0.90
2024-02-19T12:26:45.987Z,0.93
2024-02-19T12:29:13.165Z,0.80
2024-02-19T12:31:39.578Z,1.20
2024-02-19T12:34:06.095Z,0.97
2024-02-19T12:36:32.943Z,0.90
2024-02-19T12:39:00.320Z,2.20
2024-02-19T12:41:26.819Z,1.13
2024-02-19T12:43:53.570Z,0.87
2024-02-19T12:46:20.756Z,1.13
2024-02-19T12:48:47.582Z,1.00
2024-02-19T12:51:16.436Z,1.67
2024-02-19T12:53:43.226Z,1.20
2024-02-19T12:56:10.812Z,1.57
2024-02-19T12:58:37.592Z,1.20
2024-02-19T13:01:12.599Z,0.90
2024-02-19T13:03:46.255Z,1.80
2024-02-19T13:06:16.099Z,1.23
2024-02-19T13:08:45.401Z,4.13
2024-02-19T13:11:12.751Z,1.37
2024-02-19T13:13:40.026Z,1.97
2024-02-19T13:16:09.421Z,1.53
2024-02-19T13:18:37.450Z,0.97
2024-02-19T13:21:05.055Z,0.83
2024-02-19T13:23:31.950Z,1.10
2024-02-19T13:26:00.791Z,3.27
2024-02-19T13:28:27.671Z,1.33
2024-02-19T13:30:54.585Z,1.23
2024-02-19T13:33:22.714Z,2.43
2024-02-19T13:35:49.505Z,1.07
2024-02-19T13:38:18.325Z,0.80
2024-02-19T13:40:45.424Z,0.93
2024-02-19T13:43:13.017Z,0.90
2024-02-19T13:45:58.543Z,2.20
2024-02-19T13:48:26.298Z,1.60
2024-02-19T13:50:56.933Z,0.90
2024-02-19T13:53:26.121Z,4.73
2024-02-19T13:55:53.139Z,1.20
2024-02-19T13:58:20.002Z,0.87
2024-02-19T14:00:47.583Z,0.90
2024-02-19T14:03:14.817Z,1.03
2024-02-19T14:05:41.646Z,1.50
2024-02-19T14:08:10.227Z,0.93
2024-02-19T14:10:37.439Z,0.70
2024-02-19T14:13:04.326Z,0.80
2024-02-19T14:15:30.973Z,1.33
2024-02-19T14:17:57.500Z,0.83
2024-02-19T14:20:25.768Z,1.53
2024-02-19T14:22:52.606Z,2.40
2024-02-19T14:25:19.718Z,1.27
2024-02-19T14:27:46.860Z,0.80
2024-02-19T14:30:14.802Z,0.83
2024-02-19T14:32:42.044Z,0.90
2024-02-19T14:35:14.406Z,1.00
2024-02-19T14:37:42.238Z,1.27
2024-02-19T14:40:18.362Z,1.30
2024-02-19T14:42:45.816Z,0.80
2024-02-19T14:45:12.765Z,1.13
2024-02-19T14:47:40.642Z,2.40
2024-02-19T14:50:08.214Z,1.10
2024-02-19T14:52:38.577Z,1.87
2024-02-19T14:55:26.421Z,1.30
2024-02-19T14:57:53.246Z,4.50
2024-02-19T15:00:23.069Z,2.37
2024-02-19T15:02:51.032Z,1.83
2024-02-19T15:05:18.473Z,1.57
2024-02-19T15:07:46.958Z,1.50
2024-02-19T15:10:16.634Z,1.50
2024-02-19T15:12:44.235Z,1.20
2024-02-19T15:15:14.824Z,1.97
2024-02-19T15:17:42.417Z,1.73
2024-02-19T15:20:10.337Z,1.53
2024-02-19T15:22:36.870Z,1.80
2024-02-19T15:25:05.100Z,0.87
2024-02-19T15:27:32.517Z,1.10
2024-02-19T15:30:01.818Z,1.83
2024-02-19T15:32:29.395Z,1.30
2024-02-19T15:34:55.982Z,1.10
2024-02-19T15:37:23.369Z,1.80
2024-02-19T15:39:51.011Z,4.00
2024-02-19T15:42:17.725Z,1.53
2024-02-19T15:44:44.532Z,1.67
2024-02-19T15:47:11.331Z,1.40
2024-02-19T15:49:37.875Z,2.00
2024-02-19T15:52:04.993Z,0.90
2024-02-19T15:54:31.649Z,3.60
2024-02-19T15:56:57.996Z,2.20
2024-02-19T15:59:24.455Z,1.27
2024-02-19T16:01:51.859Z,1.63
2024-02-19T16:04:20.027Z,1.27
2024-02-19T16:06:46.600Z,2.30
2024-02-19T16:09:14.556Z,3.73
2024-02-19T16:11:40.968Z,1.50
2024-02-19T16:14:07.669Z,3.10
2024-02-19T16:16:34.325Z,7.50
2024-02-19T16:19:02.728Z,1.13
2024-02-19T16:21:29.536Z,1.00
2024-02-19T16:23:56.481Z,1.13
2024-02-19T16:26:25.116Z,2.93
2024-02-19T16:28:55.278Z,1.33
2024-02-19T16:31:25.157Z,3.33
2024-02-19T16:33:52.976Z,3.57
2024-02-19T16:36:21.136Z,2.60
2024-02-19T16:38:48.610Z,1.40
2024-02-19T16:41:16.261Z,1.60
2024-02-19T16:43:42.689Z,3.53
2024-02-19T16:46:09.929Z,4.03
2024-02-19T16:48:43.207Z,1.40
2024-02-19T16:51:12.661Z,6.13
2024-02-19T16:53:39.080Z,2.03
2024-02-19T16:56:05.744Z,1.90
2024-02-19T16:58:33.865Z,4.27
2024-02-19T17:01:03.482Z,4.53
2024-02-19T17:03:30.786Z,4.00
2024-02-19T17:05:57.381Z,8.33
2024-02-19T17:08:27.143Z,5.53
2024-02-19T17:10:54.138Z,4.37
2024-02-19T17:13:20.967Z,6.20
2024-02-19T17:15:47.312Z,5.53
2024-02-19T17:18:13.834Z,4.97
2024-02-19T17:20:40.278Z,15.33
2024-02-19T17:23:14.777Z,6.30
2024-02-19T17:25:41.666Z,4.93
2024-02-19T17:28:08.820Z,4.50
2024-02-19T17:30:36.342Z,7.00
2024-02-19T17:33:02.860Z,8.40
2024-02-19T17:35:29.455Z,9.63
2024-02-19T17:37:55.903Z,5.30
2024-02-19T17:40:23.662Z,3.90
2024-02-19T17:42:50.111Z,14.23
2024-02-19T17:45:17.057Z,5.17
2024-02-19T17:47:43.870Z,6.13
2024-02-19T17:50:10.695Z,3.90
2024-02-19T17:52:37.420Z,6.10
2024-02-19T17:55:03.983Z,3.03
2024-02-19T17:57:30.559Z,3.50
2024-02-19T17:59:56.874Z,3.57
2024-02-19T18:02:26.007Z,11.53
2024-02-19T18:04:55.610Z,6.97
2024-02-19T18:07:23.811Z,6.10
2024-02-19T18:09:50.161Z,3.37
2024-02-19T18:12:16.355Z,7.23
2024-02-19T18:14:42.574Z,6.03
2024-02-19T18:17:08.852Z,4.60
2024-02-19T18:19:35.606Z,4.10
2024-02-19T18:22:02.556Z,6.03
2024-02-19T18:24:28.993Z,5.00
2024-02-19T18:26:56.190Z,4.60
2024-02-19T18:29:22.900Z,8.27
2024-02-19T18:31:56.448Z,4.57
2024-02-19T18:34:24.541Z,7.57
2024-02-19T18:36:55.430Z,5.67
2024-02-19T18:39:25.952Z,10.73
2024-02-19T18:41:52.426Z,3.90
2024-02-19T18:44:18.853Z,11.27
2024-02-19T18:46:45.948Z,3.70
2024-02-19T18:49:16.188Z,5.83
2024-02-19T18:51:43.064Z,9.43
2024-02-19T18:54:09.489Z,5.40
2024-02-19T18:56:35.902Z,8.37
2024-02-19T18:59:02.816Z,3.67
2024-02-19T19:01:29.735Z,9.83
2024-02-19T19:03:56.331Z,4.30
2024-02-19T19:06:24.818Z,10.17
2024-02-19T19:08:51.328Z,5.03
2024-02-19T19:11:17.740Z,6.73
2024-02-19T19:13:45.307Z,5.03
2024-02-19T19:16:11.950Z,10.87
2024-02-19T19:18:39.230Z,8.67
2024-02-19T19:21:06.379Z,6.60
2024-02-19T19:23:32.898Z,10.40
2024-02-19T19:26:00.280Z,8.20
2024-02-19T19:28:26.902Z,11.63
2024-02-19T19:30:53.443Z,10.70
2024-02-19T19:33:19.858Z,8.80
2024-02-19T19:35:48.989Z,15.13
2024-02-19T19:38:17.240Z,11.53
2024-02-19T19:40:44.471Z,11.77
2024-02-19T19:43:11.189Z,9.40
2024-02-19T19:45:37.623Z,11.37
2024-02-19T19:48:04.450Z,11.63
2024-02-19T19:50:31.079Z,16.57
2024-02-19T19:52:58.261Z,9.60
2024-02-19T19:55:26.519Z,10.20
2024-02-19T19:57:59.823Z,9.90
2024-02-19T20:00:28.920Z,14.80
2024-02-19T20:02:55.952Z,9.90
2024-02-19T20:05:23.569Z,15.53
2024-02-19T20:07:50.372Z,17.97
2024-02-19T20:10:16.898Z,14.47
2024-02-19T20:12:43.322Z,10.87
2024-02-19T20:15:10.649Z,7.67
2024-02-19T20:17:39.095Z,14.97
2024-02-19T20:20:06.900Z,9.43
2024-02-19T20:22:36.051Z,14.60
2024-02-19T20:25:02.812Z,13.63
2024-02-19T20:27:30.599Z,20.53
2024-02-19T20:29:57.950Z,10.57
2024-02-19T20:32:24.909Z,14.07
2024-02-19T20:34:51.495Z,19.10
2024-02-19T20:37:18.221Z,9.07
2024-02-19T20:39:46.052Z,12.67
2024-02-19T20:42:13.912Z,16.50
2024-02-19T20:44:41.888Z,12.30
2024-02-19T20:47:10.326Z,9.13
2024-02-19T20:49:37.983Z,12.70
2024-02-19T20:52:06.575Z,12.13
2024-02-19T20:54:35.083Z,11.43
2024-02-19T20:57:01.561Z,10.83
2024-02-19T20:59:31.790Z,14.50
2024-02-19T21:01:59.821Z,13.93
2024-02-19T21:04:26.285Z,14.03
2024-02-19T21:06:53.143Z,17.43
2024-02-19T21:09:20.268Z,14.77
2024-02-19T21:11:49.555Z,14.40
2024-02-19T21:14:15.665Z,19.00
2024-02-19T21:16:44.864Z,17.27
2024-02-19T21:19:12.550Z,12.77
2024-02-19T21:21:39.026Z,13.00
2024-02-19T21:24:05.667Z,14.97
2024-02-19T21:26:32.710Z,16.80
2024-02-19T21:28:59.193Z,11.73
2024-02-19T21:31:25.758Z,10.40
2024-02-19T21:33:53.230Z,13.20
2024-02-19T21:36:20.096Z,15.40
2024-02-19T21:38:49.324Z,13.53
2024-02-19T21:41:16.592Z,12.90
2024-02-19T21:43:43.492Z,11.27
2024-02-19T21:46:09.919Z,13.03
2024-02-19T21:48:36.484Z,15.47
2024-02-19T21:51:05.891Z,12.73
2024-02-19T21:53:32.361Z,10.87
2024-02-19T21:55:58.691Z,12.00
2024-02-19T21:58:25.179Z,12.20
2024-02-19T22:00:51.762Z,13.43
2024-02-19T22:03:18.463Z,12.60
2024-02-19T22:05:44.843Z,11.87
2024-02-19T22:08:12.460Z,11.40
2024-02-19T22:10:38.969Z,15.13
2024-02-19T22:13:05.571Z,21.80
2024-02-19T22:15:32.195Z,15.73
2024-02-19T22:17:58.837Z,15.47
2024-02-19T22:20:25.351Z,14.13
2024-02-19T22:22:51.926Z,19.60
2024-02-19T22:25:18.264Z,17.77
2024-02-19T22:27:45.342Z,13.93
2024-02-19T22:30:12.582Z,18.43
2024-02-19T22:32:38.934Z,17.93
2024-02-19T22:35:05.593Z,14.63
2024-02-19T22:37:32.137Z,17.67
2024-02-19T22:39:58.675Z,18.97
2024-02-19T22:42:25.448Z,16.23
2024-02-19T22:44:51.822Z,13.57
2024-02-19T22:47:18.477Z,22.80
2024-02-19T22:49:45.095Z,15.07
2024-02-19T22:52:11.626Z,18.90
2024-02-19T22:54:38.583Z,19.07
2024-02-19T22:57:05.275Z,17.27
2024-02-19T22:59:32.075Z,19.40
2024-02-19T23:02:00.711Z,18.43
2024-02-19T23:04:27.214Z,14.73
2024-02-19T23:06:53.885Z,16.17
2024-02-19T23:09:20.356Z,16.97
2024-02-19T23:11:47.062Z,17.17
2024-02-19T23:14:13.414Z,21.23
2024-02-19T23:16:39.794Z,20.83
2024-02-19T23:19:06.967Z,15.90
2024-02-19T23:21:34.265Z,12.33
2024-02-19T23:24:00.636Z,18.80
2024-02-19T23:26:27.033Z,15.93
2024-02-19T23:28:53.395Z,20.53
2024-02-19T23:31:19.774Z,17.07
2024-02-19T23:33:46.349Z,14.53
2024-02-19T23:36:13.224Z,23.77
2024-02-19T23:38:40.890Z,20.00
2024-02-19T23:41:07.460Z,17.60
2024-02-19T23:43:34.128Z,20.07
2024-02-19T23:46:00.583Z,15.47
2024-02-19T23:48:27.334Z,27.20
2024-02-19T23:50:55.331Z,15.70
2024-02-19T23:53:21.855Z,17.00
2024-02-19T23:55:48.424Z,14.83
2024-02-19T23:58:15.026Z,14.67
